createdAt,value
2023-02-06T00:00:58.946Z,55.67
2023-02-06T00:03:44.401Z,56.45
2023-02-06T00:06:30.517Z,51.10
2023-02-06T00:09:16.322Z,55.25
2023-02-06T00:12:05.389Z,50.75
2023-02-06T00:14:50.675Z,57.03
2023-02-06T00:17:37.273Z,51.47
2023-02-06T00:20:22.883Z,48.63
2023-02-06T00:23:33.400Z,56.58
2023-02-06T00:26:18.792Z,48.80
2023-02-06T00:29:04.663Z,47.28
2023-02-06T00:31:50.326Z,54.95
2023-02-06T00:34:35.918Z,66.70
2023-02-06T00:37:21.565Z,52.67
2023-02-06T00:40:08.131Z,49.75
2023-02-06T00:42:53.934Z,46.45
2023-02-06T00:45:39.552Z,55.80
2023-02-06T00:48:27.086Z,48.47
2023-02-06T00:51:12.606Z,45.30
2023-02-06T00:53:58.052Z,60.50
2023-02-06T00:56:43.605Z,50.88
2023-02-06T00:59:29.350Z,59.10
2023-02-06T01:02:17.141Z,57.03
2023-02-06T01:05:03.204Z,42.60
2023-02-06T01:07:48.565Z,58.90
2023-02-06T01:10:34.078Z,59.58
2023-02-06T01:13:22.581Z,56.22
2023-02-06T01:16:16.807Z,44.85
2023-02-06T01:19:02.334Z,54.45
2023-02-06T01:21:48.794Z,49.83
2023-02-06T01:24:35.755Z,41.35
2023-02-06T01:27:21.519Z,59.92
2023-02-06T01:30:07.735Z,49.45
2023-02-06T01:32:53.255Z,44.60
2023-02-06T01:35:38.746Z,54.65
2023-02-06T01:38:26.245Z,67.13
2023-02-06T01:41:15.356Z,41.58
2023-02-06T01:44:11.351Z,54.17
2023-02-06T01:46:57.662Z,53.30
2023-02-06T01:49:48.468Z,48.20
2023-02-06T01:52:34.096Z,52.13
2023-02-06T01:55:19.580Z,51.15
2023-02-06T01:58:05.950Z,56.67
2023-02-06T02:00:51.732Z,60.42
2023-02-06T02:03:40.549Z,48.30
2023-02-06T02:06:27.771Z,57.03
2023-02-06T02:09:14.423Z,61.90
2023-02-06T02:11:59.733Z,46.30
2023-02-06T02:14:48.004Z,55.92
2023-02-06T02:17:39.235Z,52.70
2023-02-06T02:20:38.550Z,51.85
2023-02-06T02:23:47.445Z,66.25
2023-02-06T02:27:03.501Z,60.60
2023-02-06T02:30:24.341Z,63.70
2023-02-06T02:33:18.767Z,55.78
2023-02-06T02:36:41.280Z,50.93
2023-02-06T02:39:50.805Z,43.13
2023-02-06T02:42:40.668Z,51.78
2023-02-06T02:45:37.119Z,45.85
2023-02-06T02:48:33.452Z,55.25
2023-02-06T02:51:21.034Z,50.22
2023-02-06T02:54:06.699Z,45.85
2023-02-06T02:56:53.561Z,58.10
2023-02-06T02:59:46.182Z,54.85
2023-02-06T03:02:35.987Z,51.10
2023-02-06T03:05:24.665Z,41.95
2023-02-06T03:08:26.113Z,75.80
2023-02-06T03:11:20.853Z,51.13
2023-02-06T03:14:41.459Z,49.42
2023-02-06T03:17:41.655Z,43.33
2023-02-06T03:20:28.162Z,46.75
2023-02-06T03:23:18.921Z,56.33
2023-02-06T03:26:08.478Z,39.80
2023-02-06T03:28:58.404Z,47.42
2023-02-06T03:31:53.366Z,56.63
2023-02-06T03:35:03.743Z,47.03
2023-02-06T03:37:50.256Z,45.28
2023-02-06T03:40:36.441Z,46.88
2023-02-06T03:43:24.756Z,50.88
2023-02-06T03:46:12.916Z,46.55
2023-02-06T03:49:01.818Z,44.80
2023-02-06T03:52:09.453Z,44.47
2023-02-06T03:55:00.251Z,58.08
2023-02-06T03:58:00.602Z,54.85
2023-02-06T04:00:48.006Z,56.08
2023-02-06T04:03:34.056Z,51.08
2023-02-06T04:06:19.784Z,48.90
2023-02-06T04:09:07.806Z,63.25
2023-02-06T04:11:52.998Z,53.92
2023-02-06T04:14:38.660Z,46.65
2023-02-06T04:17:38.755Z,56.80
2023-02-06T04:20:30.270Z,48.63
2023-02-06T04:23:15.769Z,56.90
2023-02-06T04:26:04.242Z,55.28
2023-02-06T04:28:50.020Z,65.45
2023-02-06T04:31:35.378Z,69.47
2023-02-06T04:34:20.820Z,55.38
2023-02-06T04:37:06.866Z,58.50
2023-02-06T04:39:52.080Z,47.28
2023-02-06T04:42:37.769Z,53.13
2023-02-06T04:45:25.151Z,59.20
2023-02-06T04:48:22.127Z,55.20
2023-02-06T04:51:07.562Z,67.28
2023-02-06T04:53:52.747Z,47.53
2023-02-06T04:56:38.445Z,58.65
2023-02-06T04:59:23.969Z,46.20
2023-02-06T05:02:11.509Z,53.28
2023-02-06T05:04:59.972Z,55.42
2023-02-06T05:07:45.616Z,48.65
2023-02-06T05:10:31.203Z,63.35
2023-02-06T05:13:16.933Z,74.88
2023-02-06T05:16:07.564Z,53.40
2023-02-06T05:18:55.507Z,71.43
2023-02-06T05:21:43.153Z,52.35
2023-02-06T05:24:28.780Z,56.30
2023-02-06T05:27:14.274Z,69.63
2023-02-06T05:29:59.676Z,64.43
2023-02-06T05:32:45.676Z,55.80
2023-02-06T05:35:30.903Z,59.10
2023-02-06T05:38:16.493Z,69.68
2023-02-06T05:41:02.151Z,76.18
2023-02-06T05:43:47.636Z,76.45
2023-02-06T05:46:33.329Z,71.85
2023-02-06T05:49:21.892Z,59.78
2023-02-06T05:52:07.279Z,60.55
2023-02-06T05:54:52.640Z,59.35
2023-02-06T05:57:38.331Z,52.35
2023-02-06T06:00:23.652Z,55.88
2023-02-06T06:03:11.935Z,51.90
2023-02-06T06:05:59.090Z,62.05
2023-02-06T06:08:46.553Z,69.07
2023-02-06T06:11:33.419Z,50.40
2023-02-06T06:14:20.209Z,60.17
2023-02-06T06:17:05.728Z,55.88
2023-02-06T06:19:53.958Z,58.72
2023-02-06T06:22:41.024Z,56.88
2023-02-06T06:25:28.210Z,73.05
2023-02-06T06:28:14.117Z,60.55
2023-02-06T06:31:04.780Z,67.63
2023-02-06T06:33:50.046Z,65.63
2023-02-06T06:36:38.364Z,43.63
2023-02-06T06:39:23.851Z,57.88
2023-02-06T06:42:11.480Z,51.58
2023-02-06T06:44:56.972Z,59.95
2023-02-06T06:47:42.675Z,53.08
2023-02-06T06:50:28.196Z,63.63
2023-02-06T06:53:13.722Z,52.53
2023-02-06T06:56:04.054Z,45.53
2023-02-06T06:58:50.963Z,48.85
2023-02-06T07:01:39.072Z,43.30
2023-02-06T07:04:28.445Z,61.50
2023-02-06T07:07:13.962Z,48.13
2023-02-06T07:09:59.988Z,68.38
2023-02-06T07:12:45.644Z,64.82
2023-02-06T07:15:33.720Z,58.35
2023-02-06T07:18:19.352Z,62.05
2023-02-06T07:21:06.194Z,54.08
2023-02-06T07:23:51.854Z,57.47
2023-02-06T07:26:37.789Z,65.72
2023-02-06T07:29:23.896Z,55.42
2023-02-06T07:32:09.726Z,61.22
2023-02-06T07:34:55.040Z,53.70
2023-02-06T07:37:40.974Z,58.55
2023-02-06T07:40:43.999Z,68.15
2023-02-06T07:43:30.831Z,44.65
2023-02-06T07:46:16.437Z,59.38
2023-02-06T07:49:06.370Z,50.92
2023-02-06T07:51:52.186Z,51.58
2023-02-06T07:54:37.567Z,47.60
2023-02-06T07:57:23.349Z,48.13
2023-02-06T08:00:10.590Z,65.57
2023-02-06T08:02:59.374Z,51.42
2023-02-06T08:05:46.739Z,67.20
2023-02-06T08:08:32.089Z,42.42
2023-02-06T08:11:21.269Z,46.92
2023-02-06T08:14:06.781Z,57.22
2023-02-06T08:16:52.414Z,53.35
2023-02-06T08:19:37.561Z,52.97
2023-02-06T08:22:28.321Z,49.20
2023-02-06T08:25:14.037Z,47.10
2023-02-06T08:27:59.472Z,52.88
2023-02-06T08:30:45.071Z,56.22
2023-02-06T08:33:30.781Z,35.95
2023-02-06T08:36:17.437Z,47.60
2023-02-06T08:39:03.451Z,62.42
2023-02-06T08:41:48.733Z,48.80
2023-02-06T08:44:34.409Z,60.90
2023-02-06T08:47:20.341Z,44.75
2023-02-06T08:50:05.953Z,43.63
2023-02-06T08:52:51.139Z,47.13
2023-02-06T08:55:36.939Z,46.58
2023-02-06T08:58:22.166Z,41.25
2023-02-06T09:01:14.418Z,45.72
2023-02-06T09:04:02.857Z,48.72
2023-02-06T09:06:52.158Z,59.13
2023-02-06T09:09:37.663Z,56.58
2023-02-06T09:12:23.224Z,36.92
2023-02-06T09:15:09.270Z,54.97
2023-02-06T09:17:54.568Z,44.78
2023-02-06T09:20:42.771Z,51.92
2023-02-06T09:23:29.035Z,50.85
2023-02-06T09:26:17.001Z,45.47
2023-02-06T09:29:07.625Z,53.47
2023-02-06T09:31:53.150Z,48.17
2023-02-06T09:34:38.969Z,41.20
2023-02-06T09:37:31.057Z,57.17
2023-02-06T09:40:21.600Z,42.78
2023-02-06T09:43:07.136Z,47.40
2023-02-06T09:45:59.784Z,56.25
2023-02-06T09:48:45.298Z,54.70
2023-02-06T09:52:12.692Z,62.85
2023-02-06T09:55:17.322Z,52.63
2023-02-06T09:58:30.532Z,54.10
2023-02-06T10:01:26.124Z,66.10
2023-02-06T10:04:30.358Z,45.95
2023-02-06T10:07:52.609Z,55.88
2023-02-06T10:10:47.627Z,40.08
2023-02-06T10:13:39.004Z,37.78
2023-02-06T10:16:50.764Z,48.45
2023-02-06T10:19:53.758Z,43.10
2023-02-06T10:23:05.411Z,49.03
2023-02-06T10:26:06.003Z,42.10
2023-02-06T10:28:52.859Z,45.38
2023-02-06T10:31:51.303Z,53.22
2023-02-06T10:34:58.480Z,48.60
2023-02-06T10:38:17.844Z,67.13
2023-02-06T10:41:26.345Z,45.75
2023-02-06T10:44:25.791Z,47.65
2023-02-06T10:47:41.952Z,41.78
2023-02-06T10:50:39.359Z,40.00
2023-02-06T10:53:33.972Z,37.15
2023-02-06T10:56:27.391Z,26.88
2023-02-06T10:59:28.218Z,33.15
2023-02-06T11:02:16.511Z,42.25
2023-02-06T11:05:17.965Z,43.60
2023-02-06T11:08:29.079Z,33.00
2023-02-06T11:11:24.021Z,34.70
2023-02-06T11:14:26.495Z,40.65
2023-02-06T11:17:15.266Z,38.60
2023-02-06T11:20:35.443Z,33.20
2023-02-06T11:23:23.813Z,30.98
2023-02-06T11:26:19.042Z,36.75
2023-02-06T11:29:24.256Z,38.67
2023-02-06T11:32:37.231Z,32.58
2023-02-06T11:35:35.285Z,31.92
2023-02-06T11:38:24.636Z,35.58
2023-02-06T11:41:19.561Z,31.52
2023-02-06T11:44:06.552Z,29.77
2023-02-06T11:46:52.369Z,27.10
2023-02-06T11:49:37.745Z,29.23
2023-02-06T11:52:36.800Z,33.72
2023-02-06T11:55:29.132Z,27.85
2023-02-06T11:58:14.640Z,28.73
2023-02-06T12:01:04.508Z,24.73
2023-02-06T12:03:49.790Z,25.27
2023-02-06T12:06:38.405Z,22.48
2023-02-06T12:09:37.045Z,23.05
2023-02-06T12:12:38.879Z,29.60
2023-02-06T12:15:45.983Z,27.73
2023-02-06T12:18:38.851Z,27.23
2023-02-06T12:21:37.199Z,19.83
2023-02-06T12:24:40.630Z,22.25
2023-02-06T12:27:40.582Z,25.45
2023-02-06T12:30:39.037Z,23.40
2023-02-06T12:33:34.775Z,25.63
2023-02-06T12:36:30.185Z,25.33
2023-02-06T12:39:19.935Z,21.90
2023-02-06T12:42:30.210Z,26.95
2023-02-06T12:45:19.214Z,30.95
2023-02-06T12:48:13.555Z,22.33
2023-02-06T12:54:13.574Z,23.30
2023-02-06T12:57:23.646Z,26.40
2023-02-06T13:00:28.496Z,26.02
2023-02-06T13:03:51.553Z,25.15
2023-02-06T13:06:54.984Z,28.00
2023-02-06T13:09:51.816Z,19.70
2023-02-06T13:12:37.591Z,22.05
2023-02-06T13:15:28.763Z,22.20
2023-02-06T13:18:39.525Z,25.38
2023-02-06T13:21:36.928Z,22.00
2023-02-06T13:24:22.329Z,24.75
2023-02-06T13:27:07.654Z,22.77
2023-02-06T13:29:54.043Z,24.52
2023-02-06T13:32:47.984Z,31.48
2023-02-06T13:35:33.570Z,26.60
2023-02-06T13:38:35.876Z,29.13
2023-02-06T13:41:30.237Z,22.77
2023-02-06T13:44:22.875Z,24.80
2023-02-06T13:47:43.847Z,28.60
2023-02-06T13:50:54.360Z,26.17
2023-02-06T13:54:13.877Z,23.83
2023-02-06T13:57:23.530Z,20.73
2023-02-06T14:00:19.911Z,25.13
2023-02-06T14:03:18.648Z,21.80
2023-02-06T14:06:15.072Z,24.92
2023-02-06T14:09:08.772Z,22.50
2023-02-06T14:12:31.216Z,22.40
2023-02-06T14:15:48.695Z,24.83
2023-02-06T14:18:40.265Z,31.55
2023-02-06T14:22:02.102Z,24.00
2023-02-06T14:25:11.312Z,31.33
2023-02-06T14:28:15.608Z,25.00
2023-02-06T14:31:27.598Z,27.98
2023-02-06T14:34:39.877Z,26.90
2023-02-06T14:38:07.791Z,25.00
2023-02-06T14:40:56.657Z,22.20
2023-02-06T14:43:45.557Z,19.92
2023-02-06T14:46:31.508Z,14.55
2023-02-06T14:49:34.046Z,18.85
2023-02-06T14:52:23.500Z,15.73
2023-02-06T14:55:29.519Z,18.58
2023-02-06T14:58:29.628Z,15.10
2023-02-06T15:01:31.251Z,17.02
2023-02-06T15:04:21.985Z,19.38
2023-02-06T15:07:19.972Z,18.88
2023-02-06T15:10:15.630Z,24.92
2023-02-06T15:13:04.876Z,17.90
2023-02-06T15:15:59.529Z,19.23
2023-02-06T15:18:49.164Z,16.30
2023-02-06T15:21:34.822Z,25.35
2023-02-06T15:24:57.167Z,21.83
2023-02-06T15:27:45.731Z,17.77
2023-02-06T15:30:33.106Z,20.98
2023-02-06T15:33:23.727Z,17.48
2023-02-06T15:36:25.094Z,18.65
2023-02-06T15:39:13.157Z,21.08
2023-02-06T15:42:04.287Z,22.30
2023-02-06T15:44:51.194Z,18.63
2023-02-06T15:47:44.702Z,25.35
2023-02-06T15:50:32.990Z,20.92
2023-02-06T15:53:20.741Z,23.95
2023-02-06T15:56:16.839Z,27.00
2023-02-06T15:59:06.079Z,23.80
2023-02-06T16:01:54.539Z,19.75
2023-02-06T16:04:43.130Z,22.30
2023-02-06T16:07:32.398Z,22.00
2023-02-06T16:10:23.640Z,23.55
2023-02-06T16:13:14.578Z,27.38
2023-02-06T16:16:09.272Z,22.73
2023-02-06T16:19:00.632Z,20.05
2023-02-06T16:22:04.808Z,36.85
2023-02-06T16:24:52.277Z,29.42
2023-02-06T16:27:43.819Z,27.90
2023-02-06T16:30:33.004Z,32.22
2023-02-06T16:33:34.055Z,30.27
2023-02-06T16:36:24.300Z,28.05
2023-02-06T16:39:09.637Z,35.92
2023-02-06T16:41:55.567Z,25.10
2023-02-06T16:44:45.050Z,26.60
2023-02-06T16:47:31.661Z,25.48
2023-02-06T16:50:18.049Z,34.35
2023-02-06T16:53:03.510Z,30.27
2023-02-06T16:55:50.012Z,26.92
2023-02-06T16:58:36.003Z,30.77
2023-02-06T17:01:29.006Z,37.10
2023-02-06T17:04:14.634Z,30.30
2023-02-06T17:06:59.865Z,26.40
2023-02-06T17:09:47.854Z,28.65
2023-02-06T17:12:34.600Z,40.30
2023-02-06T17:15:21.871Z,30.33
2023-02-06T17:18:07.210Z,39.20
2023-02-06T17:20:56.371Z,36.72
2023-02-06T17:23:45.467Z,37.03
2023-02-06T17:26:30.800Z,35.45
2023-02-06T17:29:16.294Z,30.75
2023-02-06T17:32:02.221Z,42.72
2023-02-06T17:34:47.659Z,34.85
2023-02-06T17:37:32.829Z,29.48
2023-02-06T17:40:23.390Z,31.48
2023-02-06T17:43:08.894Z,33.60
2023-02-06T17:45:58.198Z,36.92
2023-02-06T17:48:44.669Z,37.22
2023-02-06T17:51:38.210Z,39.60
2023-02-06T17:54:23.625Z,32.30
2023-02-06T17:57:08.954Z,33.60
2023-02-06T17:59:55.973Z,46.30
2023-02-06T18:02:44.410Z,49.33
2023-02-06T18:05:29.534Z,46.63
2023-02-06T18:08:17.459Z,52.45
2023-02-06T18:11:15.002Z,45.67
2023-02-06T18:14:00.306Z,40.90
2023-02-06T18:16:47.056Z,47.42
2023-02-06T18:19:44.005Z,35.78
2023-02-06T18:22:29.462Z,35.05
2023-02-06T18:25:15.560Z,40.58
2023-02-06T18:28:01.010Z,45.90
2023-02-06T18:30:46.914Z,41.33
2023-02-06T18:33:35.144Z,34.80
2023-02-06T18:36:21.721Z,30.55
2023-02-06T18:39:08.055Z,45.70
2023-02-06T18:42:13.041Z,38.10
2023-02-06T18:44:59.212Z,34.40
2023-02-06T18:47:51.871Z,36.60
2023-02-06T18:53:28.120Z,43.58
2023-02-06T18:56:13.991Z,54.58
2023-02-06T18:58:59.576Z,40.85
2023-02-06T19:01:44.945Z,43.20
2023-02-06T19:04:30.495Z,33.35
2023-02-06T19:07:16.864Z,41.53
2023-02-06T19:10:05.050Z,48.53
2023-02-06T19:12:50.329Z,47.88
2023-02-06T19:15:38.018Z,50.45
2023-02-06T19:18:36.001Z,44.13
2023-02-06T19:21:25.052Z,38.70
2023-02-06T19:24:22.813Z,41.75
2023-02-06T19:27:09.580Z,57.58
2023-02-06T19:29:55.085Z,58.00
2023-02-06T19:32:44.128Z,44.85
2023-02-06T19:35:29.825Z,54.92
2023-02-06T19:38:15.381Z,45.47
2023-02-06T19:41:11.533Z,48.72
2023-02-06T19:44:01.908Z,46.05
2023-02-06T19:46:47.229Z,50.15
2023-02-06T19:49:32.948Z,41.42
2023-02-06T19:52:18.317Z,53.80
2023-02-06T19:55:04.346Z,47.60
2023-02-06T19:57:49.891Z,51.92
2023-02-06T20:00:37.383Z,39.95
2023-02-06T20:03:23.526Z,50.58
2023-02-06T20:06:12.650Z,44.05
2023-02-06T20:08:58.203Z,45.65
2023-02-06T20:11:44.478Z,48.67
2023-02-06T20:14:29.944Z,57.38
2023-02-06T20:17:17.400Z,70.00
2023-02-06T20:20:02.847Z,52.17
2023-02-06T20:22:48.258Z,56.40
2023-02-06T20:25:57.120Z,60.83
2023-02-06T20:28:42.664Z,55.75
2023-02-06T20:31:28.869Z,65.68
2023-02-06T20:34:14.317Z,63.80
2023-02-06T20:36:59.607Z,70.97
2023-02-06T20:39:45.712Z,59.78
2023-02-06T20:42:34.813Z,55.80
2023-02-06T20:45:20.187Z,55.08
2023-02-06T20:48:08.903Z,71.07
2023-02-06T20:51:05.656Z,58.35
2023-02-06T20:53:51.485Z,66.35
2023-02-06T20:56:37.093Z,62.88
2023-02-06T20:59:22.770Z,74.18
2023-02-06T21:02:10.773Z,57.42
2023-02-06T21:04:56.162Z,63.33
2023-02-06T21:07:41.743Z,69.47
2023-02-06T21:10:28.024Z,63.10
2023-02-06T21:13:13.709Z,69.32
2023-02-06T21:16:00.053Z,47.30
2023-02-06T21:18:46.363Z,42.92
2023-02-06T21:21:32.927Z,59.78
2023-02-06T21:24:18.790Z,73.70
2023-02-06T21:27:04.437Z,67.95
2023-02-06T21:29:49.666Z,65.82
2023-02-06T21:32:35.454Z,55.05
2023-02-06T21:35:20.881Z,70.18
2023-02-06T21:38:07.802Z,77.82
2023-02-06T21:40:54.841Z,79.75
2023-02-06T21:43:40.607Z,77.93
2023-02-06T21:46:26.237Z,67.43
2023-02-06T21:49:13.146Z,56.42
2023-02-06T21:51:59.552Z,74.28
2023-02-06T21:54:44.729Z,69.82
2023-02-06T21:57:30.883Z,56.72
2023-02-06T22:00:16.642Z,65.28
2023-02-06T22:03:02.009Z,70.35
2023-02-06T22:05:48.872Z,79.15
2023-02-06T22:08:44.109Z,90.75
2023-02-06T22:11:30.161Z,78.43
2023-02-06T22:14:20.483Z,66.25
2023-02-06T22:17:06.103Z,72.50
2023-02-06T22:19:53.608Z,86.85
2023-02-06T22:22:42.954Z,83.38
2023-02-06T22:25:28.612Z,84.22
2023-02-06T22:28:14.171Z,87.55
2023-02-06T22:31:11.067Z,67.40
2023-02-06T22:34:00.882Z,88.47
2023-02-06T22:36:53.499Z,81.72
2023-02-06T22:39:38.874Z,73.15
2023-02-06T22:42:24.535Z,93.32
2023-02-06T22:45:10.118Z,78.55
2023-02-06T22:47:55.512Z,90.63
2023-02-06T22:50:44.114Z,74.18
2023-02-06T22:53:29.462Z,80.15
2023-02-06T22:56:36.741Z,86.50
2023-02-06T22:59:27.057Z,81.45
2023-02-06T23:02:21.823Z,79.80
2023-02-06T23:05:07.550Z,89.32
2023-02-06T23:07:53.379Z,80.78
2023-02-06T23:10:38.539Z,96.53
2023-02-06T23:13:24.106Z,88.90
2023-02-06T23:16:10.181Z,87.22
2023-02-06T23:18:55.652Z,86.90
2023-02-06T23:21:43.115Z,86.68
2023-02-06T23:24:28.341Z,93.10
2023-02-06T23:27:13.566Z,82.63
2023-02-06T23:29:59.537Z,105.32
2023-02-06T23:32:48.517Z,81.53
2023-02-06T23:35:38.518Z,101.15
2023-02-06T23:38:24.602Z,78.38
2023-02-06T23:41:15.331Z,85.55
2023-02-06T23:44:06.850Z,86.35
2023-02-06T23:46:52.432Z,85.78
2023-02-06T23:49:37.797Z,80.85
2023-02-06T23:52:26.320Z,79.13
2023-02-06T23:55:14.444Z,109.30
2023-02-06T23:57:59.826Z,80.32
